createdAt,value
2023-03-13T06:06:55.049Z,14.80
2023-03-13T06:09:23.224Z,15.10
2023-03-13T06:11:51.488Z,14.97
2023-03-13T06:14:19.792Z,15.50
2023-03-13T06:16:59.576Z,15.37
2023-03-13T06:19:28.189Z,15.90
2023-03-13T06:21:55.036Z,16.50
2023-03-13T06:24:22.393Z,16.07
2023-03-13T06:26:50.094Z,16.03
2023-03-13T06:29:17.815Z,17.40
2023-03-13T06:31:44.910Z,16.47
2023-03-13T06:34:12.736Z,16.57
2023-03-13T06:36:39.731Z,17.80
2023-03-13T06:39:06.815Z,17.30
2023-03-13T06:41:34.107Z,16.67
2023-03-13T06:44:01.049Z,18.10
2023-03-13T06:46:28.033Z,17.93
2023-03-13T06:48:54.914Z,17.67
2023-03-13T06:51:22.698Z,17.03
2023-03-13T06:53:49.837Z,18.07
2023-03-13T06:56:16.893Z,17.80
2023-03-13T06:58:47.103Z,17.50
2023-03-13T07:01:15.588Z,17.10
2023-03-13T07:03:43.394Z,16.63
2023-03-13T07:06:11.494Z,16.37
2023-03-13T07:08:39.091Z,16.50
2023-03-13T07:11:09.947Z,15.80
2023-03-13T07:13:37.490Z,16.30
2023-03-13T07:16:07.483Z,16.40
2023-03-13T07:18:35.155Z,16.97
2023-03-13T07:21:06.552Z,16.33
2023-03-13T07:23:35.219Z,16.30
2023-03-13T07:26:07.896Z,16.00
2023-03-13T07:28:37.537Z,15.63
2023-03-13T07:31:11.683Z,15.77
2023-03-13T07:33:39.000Z,16.33
2023-03-13T07:36:06.182Z,15.10
2023-03-13T07:38:33.387Z,15.43
2023-03-13T07:41:00.319Z,15.80
2023-03-13T07:43:27.944Z,15.87
2023-03-13T07:46:00.715Z,15.17
2023-03-13T07:48:39.069Z,15.43
2023-03-13T07:51:08.441Z,16.70
2023-03-13T07:53:35.601Z,16.00
2023-03-13T07:56:04.686Z,14.57
2023-03-13T07:58:33.696Z,14.87
2023-03-13T08:01:01.174Z,14.63
2023-03-13T08:03:30.171Z,14.73
2023-03-13T08:06:04.974Z,15.80
2023-03-13T08:08:32.346Z,14.50
2023-03-13T08:11:10.358Z,14.67
2023-03-13T08:13:38.096Z,14.87
2023-03-13T08:16:32.306Z,14.40
2023-03-13T08:18:59.889Z,18.17
2023-03-13T08:21:30.895Z,16.30
2023-03-13T08:23:59.552Z,15.47
2023-03-13T08:26:28.284Z,15.20
2023-03-13T08:28:57.480Z,13.20
2023-03-13T08:31:26.271Z,13.60
2023-03-13T08:33:53.708Z,14.47
2023-03-13T08:36:25.291Z,13.80
2023-03-13T08:38:53.520Z,14.13
2023-03-13T08:41:26.190Z,14.20
2023-03-13T08:43:54.010Z,14.70
2023-03-13T08:46:21.623Z,14.57
2023-03-13T08:48:52.673Z,14.30
2023-03-13T08:51:21.468Z,14.37
2023-03-13T08:53:49.425Z,14.30
2023-03-13T08:56:20.708Z,13.77
2023-03-13T08:58:51.915Z,14.77
2023-03-13T09:01:19.853Z,14.37
2023-03-13T09:03:46.833Z,14.57
2023-03-13T09:06:13.787Z,14.70
2023-03-13T09:08:41.785Z,14.90
2023-03-13T09:11:11.653Z,14.50
2023-03-13T09:13:41.553Z,13.47
2023-03-13T09:16:11.357Z,14.60
2023-03-13T09:18:38.487Z,12.93
2023-03-13T09:21:11.936Z,13.10
2023-03-13T09:23:39.159Z,12.27
2023-03-13T09:26:06.471Z,12.00
2023-03-13T09:28:34.530Z,12.43
2023-03-13T09:31:30.230Z,11.40
2023-03-13T09:33:57.555Z,11.33
2023-03-13T09:36:25.648Z,11.07
2023-03-13T09:38:54.471Z,11.40
2023-03-13T09:41:32.748Z,9.60
2023-03-13T09:44:02.708Z,10.07
2023-03-13T09:47:01.232Z,9.67
2023-03-13T09:49:36.998Z,9.40
2023-03-13T09:52:34.061Z,11.20
2023-03-13T09:55:04.121Z,9.30
2023-03-13T09:57:59.948Z,9.83
2023-03-13T10:00:40.975Z,9.67
2023-03-13T10:03:31.618Z,8.93
2023-03-13T10:06:24.743Z,9.20
2023-03-13T10:08:52.896Z,9.53
2023-03-13T10:11:49.656Z,8.10
2023-03-13T10:14:29.012Z,8.20
2023-03-13T10:17:13.486Z,7.90
2023-03-13T10:19:45.916Z,7.73
2023-03-13T10:22:19.995Z,7.80
2023-03-13T10:24:56.389Z,7.53
2023-03-13T10:27:23.542Z,7.77
2023-03-13T10:29:50.454Z,8.13
2023-03-13T10:32:18.645Z,7.63
2023-03-13T10:35:01.531Z,7.27
2023-03-13T10:37:31.296Z,7.20
2023-03-13T10:40:22.782Z,7.20
2023-03-13T10:42:51.928Z,7.50
2023-03-13T10:45:24.948Z,7.37
2023-03-13T10:47:56.539Z,7.37
2023-03-13T10:50:26.493Z,7.23
2023-03-13T10:52:55.140Z,7.20
2023-03-13T10:55:24.411Z,7.60
2023-03-13T10:57:57.322Z,7.37
2023-03-13T11:00:35.286Z,6.83
2023-03-13T11:03:07.940Z,6.50
2023-03-13T11:05:43.208Z,6.97
2023-03-13T11:08:24.483Z,6.30
2023-03-13T11:10:56.881Z,6.50
2023-03-13T11:13:50.052Z,6.93
2023-03-13T11:16:23.507Z,9.60
2023-03-13T11:19:19.025Z,6.40
2023-03-13T11:22:03.277Z,6.23
2023-03-13T11:24:54.275Z,6.50
2023-03-13T11:27:50.674Z,6.57
2023-03-13T11:30:36.456Z,6.70
2023-03-13T11:33:40.735Z,6.30
2023-03-13T11:36:13.698Z,6.73
2023-03-13T11:38:48.223Z,6.43
2023-03-13T11:41:47.370Z,7.63
2023-03-13T11:44:24.963Z,6.53
2023-03-13T11:46:59.997Z,6.23
2023-03-13T11:49:53.441Z,6.90
2023-03-13T11:52:32.443Z,6.43
2023-03-13T11:55:38.913Z,6.63
2023-03-13T11:58:20.963Z,6.93
2023-03-13T12:01:07.564Z,6.80
2023-03-13T12:03:34.447Z,6.40
2023-03-13T12:06:03.648Z,6.83
2023-03-13T12:08:42.491Z,6.70
2023-03-13T12:11:26.291Z,7.03
2023-03-13T12:13:53.159Z,6.43
2023-03-13T12:16:25.683Z,6.77
2023-03-13T12:18:53.724Z,6.10
2023-03-13T12:21:36.343Z,6.60
2023-03-13T12:24:42.856Z,6.20
2023-03-13T12:27:16.798Z,6.33
2023-03-13T12:29:43.644Z,6.53
2023-03-13T12:32:19.764Z,6.33
2023-03-13T12:35:16.061Z,5.63
2023-03-13T12:37:58.221Z,6.40
2023-03-13T12:40:55.336Z,6.07
2023-03-13T12:43:32.880Z,7.00
2023-03-13T12:46:00.026Z,5.63
2023-03-13T12:48:33.112Z,6.10
2023-03-13T12:51:23.998Z,6.03
2023-03-13T12:54:21.409Z,5.47
2023-03-13T12:57:10.186Z,5.40
2023-03-13T12:59:49.640Z,5.40
2023-03-13T13:02:20.592Z,5.53
2023-03-13T13:04:50.888Z,6.07
2023-03-13T13:07:26.796Z,6.07
2023-03-13T13:10:19.182Z,5.97
2023-03-13T13:13:07.447Z,6.27
2023-03-13T13:15:34.817Z,6.10
2023-03-13T13:18:20.437Z,6.03
2023-03-13T13:20:49.974Z,5.83
2023-03-13T13:23:34.214Z,5.90
2023-03-13T13:26:27.058Z,6.07
2023-03-13T13:28:54.903Z,5.83
2023-03-13T13:31:51.020Z,5.87
2023-03-13T13:34:31.055Z,5.77
2023-03-13T13:37:20.617Z,5.93
2023-03-13T13:39:52.883Z,6.50
2023-03-13T13:42:42.031Z,7.37
2023-03-13T13:45:14.912Z,6.80
2023-03-13T13:47:45.512Z,7.13
2023-03-13T13:50:26.633Z,6.63
2023-03-13T13:53:13.886Z,6.87
2023-03-13T13:55:42.558Z,6.00
2023-03-13T13:58:23.121Z,6.73
2023-03-13T14:00:55.456Z,5.83
2023-03-13T14:03:28.739Z,6.50
2023-03-13T14:06:29.241Z,6.47
2023-03-13T14:09:10.777Z,6.23
2023-03-13T14:11:39.899Z,6.33
2023-03-13T14:14:21.206Z,6.97
2023-03-13T14:16:53.747Z,6.20
2023-03-13T14:19:35.506Z,7.43
2023-03-13T14:22:05.053Z,6.53
2023-03-13T14:24:32.285Z,6.50
2023-03-13T14:26:59.320Z,6.47
2023-03-13T14:29:26.900Z,6.20
2023-03-13T14:31:56.835Z,5.90
2023-03-13T14:34:24.752Z,7.20
2023-03-13T14:36:57.109Z,5.87
2023-03-13T14:39:30.997Z,6.53
2023-03-13T14:42:15.967Z,6.23
2023-03-13T14:44:46.655Z,6.17
2023-03-13T14:47:30.831Z,6.00
2023-03-13T14:50:04.655Z,6.10
2023-03-13T14:52:33.353Z,6.70
2023-03-13T14:55:25.961Z,6.13
2023-03-13T14:58:04.149Z,6.20
2023-03-13T15:00:33.202Z,6.60
2023-03-13T15:03:33.326Z,5.97
2023-03-13T15:06:12.268Z,5.70
2023-03-13T15:08:45.179Z,5.83
2023-03-13T15:11:21.917Z,5.20
2023-03-13T15:13:49.054Z,5.33
2023-03-13T15:16:20.277Z,5.30
2023-03-13T15:18:48.300Z,4.70
2023-03-13T15:21:16.889Z,5.53
2023-03-13T15:23:51.598Z,9.73
2023-03-13T15:26:18.791Z,6.23
2023-03-13T15:28:45.845Z,5.80
2023-03-13T15:31:14.767Z,5.87
2023-03-13T15:33:43.633Z,5.10
2023-03-13T15:36:17.037Z,5.60
2023-03-13T15:38:43.989Z,4.93
2023-03-13T15:41:11.208Z,5.10
2023-03-13T15:43:38.317Z,5.10
2023-03-13T15:46:12.061Z,5.53
2023-03-13T15:48:39.319Z,4.83
2023-03-13T15:51:06.935Z,5.00
2023-03-13T15:53:35.649Z,4.80
2023-03-13T15:56:10.204Z,5.57
2023-03-13T15:58:37.522Z,5.47
2023-03-13T16:01:04.646Z,5.40
2023-03-13T16:03:31.742Z,5.50
2023-03-13T16:05:58.771Z,5.57
2023-03-13T16:08:36.329Z,6.13
2023-03-13T16:11:06.808Z,5.80
2023-03-13T16:13:33.697Z,5.10
2023-03-13T16:16:00.684Z,5.33
2023-03-13T16:18:27.669Z,5.07
2023-03-13T16:20:54.675Z,5.60
2023-03-13T16:23:21.535Z,5.67
2023-03-13T16:25:49.069Z,5.43
2023-03-13T16:28:16.382Z,5.70
2023-03-13T16:30:47.783Z,5.70
2023-03-13T16:33:15.958Z,6.17
2023-03-13T16:35:42.937Z,5.97
2023-03-13T16:38:11.263Z,5.63
2023-03-13T16:40:38.237Z,5.57
2023-03-13T16:43:05.122Z,7.13
2023-03-13T16:45:32.033Z,5.73
2023-03-13T16:47:59.067Z,6.80
2023-03-13T16:50:35.913Z,5.67
2023-03-13T16:53:03.523Z,5.93
2023-03-13T16:55:36.252Z,6.27
2023-03-13T16:58:04.155Z,5.93
2023-03-13T17:00:32.501Z,6.07
2023-03-13T17:02:59.930Z,5.90
2023-03-13T17:05:27.546Z,6.57
2023-03-13T17:07:57.161Z,6.27
2023-03-13T17:10:27.378Z,6.17
2023-03-13T17:12:54.696Z,6.00
2023-03-13T17:15:22.258Z,6.57
2023-03-13T17:17:54.199Z,6.07
2023-03-13T17:20:27.535Z,6.53
2023-03-13T17:23:01.101Z,6.60
2023-03-13T17:25:28.802Z,6.00
2023-03-13T17:27:57.742Z,6.77
2023-03-13T17:30:31.216Z,7.00
2023-03-13T17:32:59.144Z,6.90
2023-03-13T17:35:27.406Z,7.13
2023-03-13T17:37:54.355Z,7.37
2023-03-13T17:40:22.697Z,6.50
2023-03-13T17:42:50.632Z,6.53
2023-03-13T17:45:17.949Z,6.20
2023-03-13T17:47:45.249Z,6.30
2023-03-13T17:50:16.111Z,6.43
2023-03-13T17:52:43.242Z,5.83
2023-03-13T17:55:11.609Z,6.30
2023-03-13T17:57:39.491Z,6.50
2023-03-13T18:00:23.079Z,6.47
2023-03-13T18:02:50.480Z,6.23
2023-03-13T18:05:18.321Z,6.53
2023-03-13T18:07:45.756Z,6.80
2023-03-13T18:10:25.977Z,7.97
2023-03-13T18:12:53.231Z,6.40
2023-03-13T18:15:21.667Z,6.50
2023-03-13T18:17:49.626Z,6.70
2023-03-13T18:20:25.287Z,6.37
2023-03-13T18:22:52.471Z,6.13
2023-03-13T18:25:19.894Z,6.60
2023-03-13T18:27:46.940Z,6.90
2023-03-13T18:30:19.955Z,6.77
2023-03-13T18:32:48.144Z,7.07
2023-03-13T18:35:16.110Z,6.20
2023-03-13T18:37:47.847Z,6.50
2023-03-13T18:40:19.362Z,6.33
2023-03-13T18:42:46.653Z,6.90
2023-03-13T18:45:19.423Z,6.70
2023-03-13T18:47:48.274Z,6.50
2023-03-13T18:50:26.313Z,7.07
2023-03-13T18:52:55.464Z,6.70
2023-03-13T18:55:28.100Z,7.10
2023-03-13T18:57:55.780Z,6.70
2023-03-13T19:00:25.618Z,6.80
2023-03-13T19:02:52.888Z,6.53
2023-03-13T19:05:20.235Z,6.27
2023-03-13T19:07:47.396Z,6.30
2023-03-13T19:10:27.317Z,6.90
2023-03-13T19:12:56.345Z,6.53
2023-03-13T19:15:27.318Z,7.07
2023-03-13T19:17:56.185Z,6.70
2023-03-13T19:20:24.300Z,6.23
2023-03-13T19:22:51.246Z,6.70
2023-03-13T19:25:18.447Z,6.70
2023-03-13T19:27:45.864Z,6.33
2023-03-13T19:30:24.250Z,6.57
2023-03-13T19:32:52.143Z,7.47
2023-03-13T19:35:21.834Z,6.73
2023-03-13T19:37:49.137Z,6.90
2023-03-13T19:40:30.849Z,6.50
2023-03-13T19:42:57.855Z,6.60
2023-03-13T19:45:26.375Z,6.43
2023-03-13T19:47:53.325Z,6.37
2023-03-13T19:50:23.346Z,6.50
2023-03-13T19:52:50.362Z,6.50
2023-03-13T19:55:18.773Z,7.40
2023-03-13T19:57:45.904Z,6.43
2023-03-13T20:00:24.445Z,6.70
2023-03-13T20:02:57.428Z,7.00
2023-03-13T20:05:27.406Z,7.20
2023-03-13T20:07:54.839Z,6.67
2023-03-13T20:10:22.434Z,6.43
2023-03-13T20:12:49.651Z,7.00
2023-03-13T20:15:16.993Z,7.43
2023-03-13T20:17:43.886Z,7.30
2023-03-13T20:20:11.439Z,7.70
2023-03-13T20:22:38.326Z,6.83
2023-03-13T20:25:05.531Z,6.80
2023-03-13T20:27:32.604Z,7.83
2023-03-13T20:29:59.951Z,7.03
2023-03-13T20:32:27.679Z,7.40
2023-03-13T20:34:54.585Z,6.60
2023-03-13T20:37:21.443Z,7.00
2023-03-13T20:39:48.318Z,7.50
2023-03-13T20:42:16.521Z,7.23
2023-03-13T20:44:43.517Z,7.20
2023-03-13T20:47:10.404Z,7.73
2023-03-13T20:49:38.088Z,7.20
2023-03-13T20:52:05.120Z,6.63
2023-03-13T20:54:31.985Z,7.13
2023-03-13T20:56:58.942Z,6.93
2023-03-13T20:59:26.014Z,7.33
2023-03-13T21:01:52.964Z,6.77
2023-03-13T21:04:19.846Z,7.13
2023-03-13T21:06:46.811Z,6.70
2023-03-13T21:09:13.746Z,7.03
2023-03-13T21:11:40.767Z,7.10
2023-03-13T21:14:07.673Z,6.90
2023-03-13T21:16:34.708Z,7.00
2023-03-13T21:19:01.661Z,6.53
2023-03-13T21:21:29.531Z,6.93
2023-03-13T21:23:56.509Z,6.77
2023-03-13T21:26:23.456Z,6.30
2023-03-13T21:28:52.014Z,6.83
2023-03-13T21:31:19.983Z,6.30
2023-03-13T21:33:48.440Z,6.33
2023-03-13T21:36:17.488Z,6.73
2023-03-13T21:38:45.087Z,6.90
2023-03-13T21:41:14.624Z,6.57
2023-03-13T21:43:42.681Z,7.00
2023-03-13T21:46:11.372Z,8.63
2023-03-13T21:48:40.702Z,7.13
2023-03-13T21:51:08.309Z,7.10
2023-03-13T21:53:36.183Z,6.87
2023-03-13T21:56:04.086Z,7.27
2023-03-13T21:58:31.150Z,7.53
2023-03-13T22:00:58.474Z,7.20
2023-03-13T22:03:28.735Z,7.43
2023-03-13T22:05:55.755Z,7.53
2023-03-13T22:08:22.719Z,7.70
2023-03-13T22:10:51.401Z,7.43
2023-03-13T22:13:19.008Z,7.33
2023-03-13T22:15:47.008Z,7.60
2023-03-13T22:18:17.200Z,7.00
2023-03-13T22:20:44.403Z,7.60
2023-03-13T22:23:12.224Z,7.37
2023-03-13T22:25:40.483Z,7.00
2023-03-13T22:28:07.441Z,7.23
2023-03-13T22:30:34.952Z,7.33
2023-03-13T22:33:03.847Z,7.03
2023-03-13T22:35:30.768Z,7.87
2023-03-13T22:37:58.020Z,7.50
2023-03-13T22:40:24.924Z,7.30
2023-03-13T22:42:51.853Z,7.37
2023-03-13T22:45:19.302Z,7.63
2023-03-13T22:47:46.266Z,6.73
2023-03-13T22:50:14.074Z,6.70
2023-03-13T22:52:41.394Z,7.33
2023-03-13T22:55:08.865Z,6.90
2023-03-13T22:57:35.732Z,7.07
2023-03-13T23:00:02.845Z,7.37
2023-03-13T23:02:29.762Z,6.87
2023-03-13T23:04:58.547Z,6.83
2023-03-13T23:07:29.725Z,7.40
2023-03-13T23:09:57.443Z,7.13
2023-03-13T23:12:26.011Z,7.37
2023-03-13T23:14:53.156Z,7.60
2023-03-13T23:17:20.075Z,7.57
2023-03-13T23:19:47.051Z,7.17
2023-03-13T23:22:17.870Z,7.30
2023-03-13T23:24:45.068Z,7.07
2023-03-13T23:27:11.971Z,7.67
2023-03-13T23:29:39.280Z,7.50
2023-03-13T23:32:06.497Z,7.40
2023-03-13T23:34:35.799Z,7.07
2023-03-13T23:37:03.047Z,7.80
2023-03-13T23:39:30.139Z,7.40
2023-03-13T23:41:57.007Z,7.40
2023-03-13T23:44:23.915Z,7.30
2023-03-13T23:46:50.823Z,7.40
2023-03-13T23:49:17.682Z,7.30
2023-03-13T23:51:44.579Z,8.00
2023-03-13T23:54:11.477Z,8.07
2023-03-13T23:56:38.320Z,7.67
2023-03-13T23:59:05.285Z,7.43
